Time;durP1;ratioP1;P1;durP2;ratioP2;P2;SDS_P1;SDS_P2;PMS_P1;PMS_P2;Temp;Humidity;BMP_temperature;BMP_pressure;BME280_temperature;BME280_humidity;BME280_pressure;Samples;Min_cycle;Max_cycle;Signal;HPM_P1;HPM_P2
2021/05/18 00:00:15;;;;;;;3.25;1.45;;;;;;;;;;4923940;28;20071;-78
2021/05/18 00:02:41;;;;;;;2.83;1.63;;;;;;;;;;4937277;28;20630;-78
2021/05/18 00:05:09;;;;;;;3.13;1.67;;;;;;;;;;4923473;28;20380;-78
2021/05/18 00:07:37;;;;;;;3.03;1.60;;;;;;;;;;4925143;28;20083;-78
2021/05/18 00:13:03;;;;;;;2.50;1.50;;;;;;;;;;4931621;28;20492;-77
2021/05/18 00:15:30;;;;;;;3.15;1.50;;;;;;;;;;4925931;28;20063;-76
2021/05/18 00:17:56;;;;;;;3.30;1.52;;;;;;;;;;4924199;28;20115;-77
2021/05/18 00:20:22;;;;;;;2.72;1.60;;;;;;;;;;4939111;28;20746;-76
2021/05/18 00:22:49;;;;;;;2.47;1.60;;;;;;;;;;4920339;28;20055;-77
2021/05/18 00:25:16;;;;;;;2.00;1.35;;;;;;;;;;4924854;28;20067;-76
2021/05/18 00:27:42;;;;;;;3.30;1.67;;;;;;;;;;4928792;28;20416;-76
2021/05/18 00:30:10;;;;;;;2.97;1.60;;;;;;;;;;4923797;28;20067;-76
2021/05/18 00:32:38;;;;;;;3.15;1.50;;;;;;;;;;4921689;28;20897;-77
2021/05/18 00:35:06;;;;;;;3.50;2.10;;;;;;;;;;4936536;28;20056;-77
2021/05/18 00:37:32;;;;;;;2.63;1.77;;;;;;;;;;4940336;28;20381;-78
2021/05/18 00:39:58;;;;;;;2.90;1.88;;;;;;;;;;4908502;28;20068;-79
2021/05/18 00:42:25;;;;;;;2.15;1.50;;;;;;;;;;4907490;28;20052;-77
2021/05/18 00:44:53;;;;;;;2.47;1.80;;;;;;;;;;4921773;28;20583;-76
2021/05/18 00:47:20;;;;;;;2.88;1.65;;;;;;;;;;4922802;28;20041;-77
2021/05/18 00:49:46;;;;;;;3.33;1.80;;;;;;;;;;4924045;28;20067;-78
2021/05/18 00:52:13;;;;;;;3.55;1.98;;;;;;;;;;4921690;28;20040;-77
2021/05/18 00:54:55;;;;;;;2.47;1.50;;;;;;;;;;4938854;28;20067;-78
2021/05/18 01:00:08;;;;;;;3.25;1.73;;;;;;;;;;4925361;28;20134;-78
2021/05/18 01:02:34;;;;;;;2.67;1.60;;;;;;;;;;4924810;28;20071;-78
2021/05/18 01:05:09;;;;;;;2.65;1.75;;;;;;;;;;4919260;28;20098;-78
2021/05/18 01:07:36;;;;;;;2.58;1.80;;;;;;;;;;4939212;28;20784;-79
2021/05/18 01:10:04;;;;;;;2.72;1.70;;;;;;;;;;4938431;28;20063;-78
2021/05/18 01:12:31;;;;;;;2.67;1.70;;;;;;;;;;4924805;28;20146;-78
2021/05/18 01:14:57;;;;;;;2.42;1.70;;;;;;;;;;4937149;28;20860;-77
2021/05/18 01:17:24;;;;;;;2.92;1.85;;;;;;;;;;4940048;28;20063;-77
2021/05/18 01:19:50;;;;;;;3.00;1.48;;;;;;;;;;4909407;28;20122;-78
2021/05/18 01:22:17;;;;;;;2.58;1.70;;;;;;;;;;4925500;28;20628;-77
2021/05/18 01:24:43;;;;;;;4.00;1.80;;;;;;;;;;4922367;28;20067;-78
2021/05/18 01:27:10;;;;;;;4.00;1.85;;;;;;;;;;4923417;28;21557;-78
2021/05/18 01:29:36;;;;;;;2.78;1.80;;;;;;;;;;4927668;28;20110;-78
2021/05/18 01:32:07;;;;;;;2.38;1.83;;;;;;;;;;4921913;28;20058;-78
2021/05/18 01:34:34;;;;;;;2.17;1.40;;;;;;;;;;4924017;28;20135;-78
2021/05/18 01:37:01;;;;;;;3.08;1.70;;;;;;;;;;4925139;28;20074;-79
2021/05/18 01:44:39;;;;;;;3.00;1.73;;;;;;;;;;4923134;28;20066;-77
2021/05/18 01:47:08;;;;;;;2.50;1.52;;;;;;;;;;4938224;28;20516;-77
2021/05/18 01:49:34;;;;;;;3.13;1.65;;;;;;;;;;4923810;28;20452;-77
2021/05/18 01:52:03;;;;;;;3.60;2.00;;;;;;;;;;4921340;28;20135;-77
2021/05/18 01:54:31;;;;;;;3.05;1.90;;;;;;;;;;4935496;28;20118;-76
2021/05/18 01:59:44;;;;;;;2.28;1.40;;;;;;;;;;4923455;28;20583;-77
2021/05/18 02:02:10;;;;;;;2.85;1.70;;;;;;;;;;4923635;28;20075;-78
2021/05/18 02:04:48;;;;;;;3.55;1.60;;;;;;;;;;4922789;28;20063;-79
2021/05/18 02:07:17;;;;;;;2.60;1.90;;;;;;;;;;4938143;28;20126;-78
2021/05/18 02:09:43;;;;;;;2.58;1.65;;;;;;;;;;4921204;28;20082;-78
2021/05/18 02:12:10;;;;;;;2.60;1.50;;;;;;;;;;4924686;28;20156;-77
2021/05/18 02:14:38;;;;;;;3.08;1.70;;;;;;;;;;4925127;28;20710;-78
2021/05/18 02:25:17;;;;;;;3.42;1.73;;;;;;;;;;4920007;28;21218;-77
2021/05/18 02:27:43;;;;;;;2.75;1.88;;;;;;;;;;4942606;28;20040;-77
2021/05/18 02:30:10;;;;;;;2.83;1.75;;;;;;;;;;4925611;28;20058;-76
2021/05/18 02:32:37;;;;;;;3.05;1.85;;;;;;;;;;4941539;28;20044;-77
2021/05/18 02:35:04;;;;;;;2.42;1.70;;;;;;;;;;4927144;28;20047;-77
2021/05/18 02:37:31;;;;;;;2.13;1.60;;;;;;;;;;4923088;28;20043;-78
2021/05/18 02:39:57;;;;;;;3.08;1.80;;;;;;;;;;4919817;28;20055;-78
2021/05/18 02:42:24;;;;;;;2.60;1.70;;;;;;;;;;4921077;28;20499;-77
2021/05/18 02:45:02;;;;;;;2.78;1.70;;;;;;;;;;4930738;28;20141;-77
2021/05/18 02:50:14;;;;;;;2.88;1.77;;;;;;;;;;4921089;28;20111;-77
2021/05/18 02:52:41;;;;;;;3.53;2.00;;;;;;;;;;4913228;29;20397;-78
2021/05/18 02:55:11;;;;;;;2.53;1.70;;;;;;;;;;4925846;28;20229;-78
2021/05/18 02:57:38;;;;;;;2.97;1.73;;;;;;;;;;4926369;28;20205;-82
2021/05/18 03:00:07;;;;;;;2.47;1.70;;;;;;;;;;4928016;28;20428;-77
2021/05/18 03:02:33;;;;;;;3.17;1.77;;;;;;;;;;4925377;28;20071;-77
2021/05/18 03:04:59;;;;;;;3.22;1.75;;;;;;;;;;4929632;28;20067;-78
2021/05/18 03:07:26;;;;;;;2.20;1.50;;;;;;;;;;4926876;28;20499;-78
2021/05/18 03:09:52;;;;;;;2.97;1.75;;;;;;;;;;4942740;28;20057;-78
2021/05/18 03:12:19;;;;;;;4.13;1.80;;;;;;;;;;4929548;28;20059;-78
2021/05/18 03:14:45;;;;;;;2.70;2.00;;;;;;;;;;4931637;28;20039;-78
2021/05/18 03:17:12;;;;;;;2.95;1.98;;;;;;;;;;4930025;28;20062;-77
2021/05/18 03:19:38;;;;;;;3.78;1.75;;;;;;;;;;4928874;28;20488;-76
2021/05/18 03:22:05;;;;;;;1.75;1.50;;;;;;;;;;4924047;28;20135;-77
2021/05/18 03:24:31;;;;;;;2.33;1.80;;;;;;;;;;4925649;28;20520;-77
2021/05/18 03:26:58;;;;;;;2.40;1.65;;;;;;;;;;4923589;28;20086;-78
2021/05/18 03:29:29;;;;;;;2.85;1.80;;;;;;;;;;4927212;28;20063;-77
2021/05/18 03:34:40;;;;;;;2.58;1.80;;;;;;;;;;4928093;28;20078;-77
2021/05/18 03:37:43;;;;;;;2.80;1.35;;;;;;;;;;4923401;28;20129;-76
2021/05/18 03:40:03;;;;;;;3.45;1.80;;;;;;;;;;4924136;28;20059;-77
2021/05/18 03:42:36;;;;;;;2.35;1.70;;;;;;;;;;4927924;28;20071;-77
2021/05/18 03:45:09;;;;;;;2.92;1.75;;;;;;;;;;4928395;28;20051;-77
2021/05/18 04:17:03;;;;;;;3.33;1.73;;;;;;;;;;4940732;28;20119;-76
2021/05/18 04:19:39;;;;;;;2.95;1.80;;;;;;;;;;4941793;28;20051;-77
2021/05/18 04:24:56;;;;;;;2.85;1.80;;;;;;;;;;4925506;28;20110;-77
2021/05/18 04:39:50;;;;;;;4.32;1.67;;;;;;;;;;4904487;28;21288;-78
2021/05/18 04:42:26;;;;;;;2.60;1.90;;;;;;;;;;4922580;28;20067;-78
2021/05/18 05:16:25;;;;;;;2.72;1.75;;;;;;;;;;4923016;28;20126;-77
2021/05/18 05:18:52;;;;;;;3.58;1.90;;;;;;;;;;4924677;28;20055;-76
2021/05/18 05:21:27;;;;;;;2.80;1.70;;;;;;;;;;4922753;28;20055;-76
2021/05/18 05:23:54;;;;;;;2.92;1.70;;;;;;;;;;4923122;28;20150;-77
2021/05/18 05:26:21;;;;;;;3.83;1.90;;;;;;;;;;4923852;28;20055;-77
2021/05/18 05:28:47;;;;;;;2.67;1.90;;;;;;;;;;4922005;28;20133;-77
2021/05/18 05:31:14;;;;;;;3.45;1.70;;;;;;;;;;4919742;28;20102;-79
2021/05/18 05:33:40;;;;;;;3.97;1.60;;;;;;;;;;4897371;28;20059;-78
2021/05/18 05:36:07;;;;;;;3.50;1.85;;;;;;;;;;4924553;28;20059;-76
2021/05/18 05:38:34;;;;;;;3.35;1.70;;;;;;;;;;4941220;28;20031;-80
2021/05/18 05:41:01;;;;;;;3.17;1.63;;;;;;;;;;4916264;28;20031;-80
2021/05/18 05:43:28;;;;;;;2.15;1.42;;;;;;;;;;4918032;28;20063;-82
2021/05/18 05:45:54;;;;;;;2.47;1.50;;;;;;;;;;4921281;28;20499;-82
2021/05/18 05:48:21;;;;;;;2.30;1.52;;;;;;;;;;4922062;28;20055;-83
2021/05/18 05:50:48;;;;;;;2.83;1.65;;;;;;;;;;4936975;28;20127;-82
2021/05/18 05:53:15;;;;;;;4.28;1.58;;;;;;;;;;4927246;28;20067;-83
2021/05/18 05:55:42;;;;;;;2.40;1.60;;;;;;;;;;4929245;28;20123;-81
2021/05/18 05:58:08;;;;;;;2.75;1.52;;;;;;;;;;4929375;28;20055;-81
2021/05/18 06:00:35;;;;;;;3.83;1.50;;;;;;;;;;4942468;28;20082;-82
2021/05/18 06:03:01;;;;;;;3.67;1.60;;;;;;;;;;4929710;28;20068;-84
2021/05/18 06:05:28;;;;;;;2.58;1.40;;;;;;;;;;4937510;28;20058;-76
2021/05/18 06:07:54;;;;;;;4.15;1.40;;;;;;;;;;4934471;28;20086;-75
2021/05/18 06:10:26;;;;;;;3.00;1.50;;;;;;;;;;4921317;28;20074;-75
2021/05/18 06:42:48;;;;;;;2.85;1.40;;;;;;;;;;4933739;28;20080;-73
2021/05/18 06:48:02;;;;;;;3.22;1.70;;;;;;;;;;4937022;28;20043;-74
2021/05/18 06:50:45;;;;;;;2.47;1.67;;;;;;;;;;4923855;28;20087;-76
2021/05/18 06:53:12;;;;;;;2.13;1.45;;;;;;;;;;4934727;28;20880;-76
2021/05/18 06:55:39;;;;;;;2.50;1.30;;;;;;;;;;4930511;28;20136;-76
2021/05/18 06:58:15;;;;;;;2.83;1.50;;;;;;;;;;4910257;28;20073;-75
2021/05/18 07:00:42;;;;;;;2.08;1.20;;;;;;;;;;4933411;28;20059;-76
2021/05/18 07:03:14;;;;;;;3.35;1.48;;;;;;;;;;4924620;28;20062;-76
2021/05/18 07:06:00;;;;;;;;;;;;;;;;;;4936934;28;20047;-75
2021/05/18 07:10:53;;;;;;;3.25;1.30;;;;;;;;;;4937137;28;20067;-75
2021/05/18 07:13:22;;;;;;;2.58;1.30;;;;;;;;;;4916762;28;20071;-76
2021/05/18 07:15:52;;;;;;;3.50;1.55;;;;;;;;;;4928223;28;20771;-75
2021/05/18 07:18:33;;;;;;;3.72;1.55;;;;;;;;;;4936107;28;20064;-75
2021/05/18 07:21:00;;;;;;;2.83;1.50;;;;;;;;;;4920765;28;20032;-75
2021/05/18 07:23:29;;;;;;;2.72;1.60;;;;;;;;;;4936035;28;20059;-76
2021/05/18 07:25:58;;;;;;;2.88;1.60;;;;;;;;;;4914033;28;20071;-76
2021/05/18 07:28:47;;;;;;;2.20;1.30;;;;;;;;;;4934008;28;20452;-74
2021/05/18 07:31:25;;;;;;;2.95;1.30;;;;;;;;;;4888567;28;20042;-75
2021/05/18 07:33:54;;;;;;;1.80;1.40;;;;;;;;;;4920014;28;20584;-75
2021/05/18 07:36:20;;;;;;;1.73;1.10;;;;;;;;;;4937789;28;20060;-76
2021/05/18 07:38:49;;;;;;;4.75;1.40;;;;;;;;;;4930460;28;20115;-74
2021/05/18 07:41:15;;;;;;;2.72;1.55;;;;;;;;;;4938887;28;20040;-75
2021/05/18 07:43:42;;;;;;;2.13;1.30;;;;;;;;;;4924801;28;20082;-75
2021/05/18 07:46:15;;;;;;;3.40;1.48;;;;;;;;;;4939312;28;20067;-75
2021/05/18 07:49:10;;;;;;;2.05;1.30;;;;;;;;;;4947090;28;20589;-75
2021/05/18 07:59:44;;;;;;;3.15;1.35;;;;;;;;;;4925163;28;20066;-78
2021/05/18 08:05:25;;;;;;;2.53;1.60;;;;;;;;;;4917710;29;20122;-76
2021/05/18 08:07:52;;;;;;;3.08;1.40;;;;;;;;;;4926824;29;20067;-75
2021/05/18 08:11:02;;;;;;;2.60;1.52;;;;;;;;;;4933280;28;20424;-76
2021/05/18 08:13:08;;;;;;;2.08;1.48;;;;;;;;;;4920004;28;20034;-76
2021/05/18 08:19:39;;;;;;;3.88;1.45;;;;;;;;;;4912403;28;20094;-76
2021/05/18 09:30:34;;;;;;;2.13;1.48;;;;;;;;;;4922158;29;20170;-73
2021/05/18 10:35:40;;;;;;;2.88;1.67;;;;;;;;;;4923555;28;20032;-78
2021/05/18 10:38:08;;;;;;;2.95;2.00;;;;;;;;;;4925762;28;20063;-78
2021/05/18 10:40:37;;;;;;;;;;;;;;;;;;4924776;29;20036;-79
2021/05/18 10:43:08;;;;;;;3.83;1.80;;;;;;;;;;4905145;28;19949;-79
2021/05/18 10:45:53;;;;;;;2.35;1.70;;;;;;;;;;4923449;29;20051;-79
2021/05/18 10:48:35;;;;;;;2.50;1.90;;;;;;;;;;4923961;28;20404;-81
2021/05/18 10:51:25;;;;;;;2.90;1.60;;;;;;;;;;4920020;28;20353;-81
2021/05/18 10:54:17;;;;;;;2.67;1.80;;;;;;;;;;4908583;28;20385;-80
2021/05/18 10:56:50;;;;;;;2.75;1.92;;;;;;;;;;4925533;28;20035;-80
2021/05/18 10:59:17;;;;;;;2.90;1.75;;;;;;;;;;4919737;28;21474;-80
2021/05/18 11:01:44;;;;;;;2.65;1.98;;;;;;;;;;4934513;28;20033;-81
2021/05/18 11:04:12;;;;;;;3.88;2.08;;;;;;;;;;4921787;28;20709;-80
2021/05/18 11:06:57;;;;;;;3.38;2.10;;;;;;;;;;4924261;28;20040;-78
2021/05/18 11:09:24;;;;;;;2.83;1.80;;;;;;;;;;4916946;28;20445;-78
2021/05/18 11:12:18;;;;;;;2.45;1.75;;;;;;;;;;4927538;28;20051;-78
2021/05/18 11:14:52;;;;;;;2.60;1.88;;;;;;;;;;4926476;28;20067;-78
2021/05/18 11:17:23;;;;;;;2.70;1.90;;;;;;;;;;4926694;28;20044;-79
2021/05/18 11:19:57;;;;;;;2.83;1.65;;;;;;;;;;4933036;28;20059;-76
2021/05/18 11:25:10;;;;;;;3.65;1.75;;;;;;;;;;4922227;28;20031;-79
2021/05/18 11:27:37;;;;;;;2.67;1.98;;;;;;;;;;4925831;28;20782;-78
2021/05/18 11:30:07;;;;;;;2.83;2.08;;;;;;;;;;4897798;28;20049;-81
2021/05/18 11:32:34;;;;;;;4.47;2.03;;;;;;;;;;4933483;28;20068;-83
2021/05/18 11:35:03;;;;;;;2.80;1.90;;;;;;;;;;4915763;28;20113;-82
2021/05/18 11:37:30;;;;;;;5.15;2.10;;;;;;;;;;4937954;28;20071;-84
2021/05/18 11:40:10;;;;;;;3.42;2.00;;;;;;;;;;4925189;28;20067;-82
2021/05/18 11:42:44;;;;;;;3.35;1.88;;;;;;;;;;4923713;28;20171;-85
2021/05/18 11:45:13;;;;;;;3.78;1.60;;;;;;;;;;4900063;29;20032;-85
2021/05/18 11:47:42;;;;;;;2.20;1.60;;;;;;;;;;4937427;28;20082;-83
2021/05/18 11:50:36;;;;;;;3.42;1.90;;;;;;;;;;4940200;28;20034;-87
2021/05/18 11:53:27;;;;;;;4.28;2.10;;;;;;;;;;4898844;29;20046;-81
2021/05/18 11:55:54;;;;;;;5.22;1.85;;;;;;;;;;4923200;28;20583;-84
2021/05/18 11:58:20;;;;;;;4.13;2.00;;;;;;;;;;4936076;28;20036;-82
2021/05/18 12:00:47;;;;;;;3.35;1.75;;;;;;;;;;4917408;28;20126;-82
2021/05/18 12:03:13;;;;;;;3.75;1.88;;;;;;;;;;4934690;28;20465;-81
2021/05/18 12:05:51;;;;;;;3.28;1.77;;;;;;;;;;4915151;28;20071;-82
2021/05/18 12:08:47;;;;;;;3.58;2.20;;;;;;;;;;4919358;28;20154;-82
2021/05/18 12:11:21;;;;;;;3.83;1.88;;;;;;;;;;4897244;29;20091;-81
2021/05/18 12:13:52;;;;;;;4.28;2.17;;;;;;;;;;4934373;28;20090;-80
2021/05/18 12:16:22;;;;;;;3.88;1.90;;;;;;;;;;4920154;28;20068;-79
2021/05/18 12:19:00;;;;;;;6.05;3.78;;;;;;;;;;4904759;28;20522;-76
2021/05/18 12:21:29;;;;;;;11.75;7.57;;;;;;;;;;4936930;28;20047;-76
2021/05/18 12:24:08;;;;;;;8.07;4.50;;;;;;;;;;4920904;28;20062;-76
2021/05/18 12:26:44;;;;;;;463.02;294.10;;;;;;;;;;4925782;28;20066;-78
2021/05/18 12:29:13;;;;;;;28.88;16.30;;;;;;;;;;4914863;28;20083;-78
2021/05/18 12:31:44;;;;;;;;;;;;;;;;;;4924524;28;20044;-79
2021/05/18 12:34:29;;;;;;;9.60;6.45;;;;;;;;;;4939296;28;19954;-76
2021/05/18 12:36:55;;;;;;;8.52;5.32;;;;;;;;;;4926264;28;20129;-80
2021/05/18 12:39:22;;;;;;;8.45;5.05;;;;;;;;;;4921297;28;20063;-77
2021/05/18 12:41:54;;;;;;;7.57;4.07;;;;;;;;;;4926423;28;20592;-78
2021/05/18 12:44:22;;;;;;;8.70;4.47;;;;;;;;;;4923585;28;20094;-78
2021/05/18 12:47:08;;;;;;;9.10;5.07;;;;;;;;;;4923193;28;20055;-77
2021/05/18 12:49:38;;;;;;;7.57;5.13;;;;;;;;;;4919601;28;20068;-77
2021/05/18 12:52:15;;;;;;;8.27;4.65;;;;;;;;;;4915369;28;20031;-77
2021/05/18 12:54:43;;;;;;;6.90;4.70;;;;;;;;;;4918241;28;20020;-77
2021/05/18 12:57:11;;;;;;;8.45;4.60;;;;;;;;;;4918225;28;20098;-74
2021/05/18 12:59:55;;;;;;;11.18;5.68;;;;;;;;;;4925460;28;20059;-76
2021/05/18 13:02:28;;;;;;;8.82;4.85;;;;;;;;;;4936686;28;20383;-77
2021/05/18 13:05:07;;;;;;;6.00;4.07;;;;;;;;;;4924506;28;20111;-76
2021/05/18 13:07:37;;;;;;;7.13;4.25;;;;;;;;;;4940503;28;20036;-77
2021/05/18 13:10:07;;;;;;;6.50;4.00;;;;;;;;;;4907717;28;20063;-77
2021/05/18 13:12:37;;;;;;;7.05;3.90;;;;;;;;;;4923617;28;20046;-76
2021/05/18 13:15:06;;;;;;;6.45;3.47;;;;;;;;;;4922547;28;20063;-77
2021/05/18 13:17:32;;;;;;;8.93;4.72;;;;;;;;;;4937141;28;20150;-80
2021/05/18 13:20:00;;;;;;;8.32;4.20;;;;;;;;;;4927134;28;20114;-77
2021/05/18 13:22:32;;;;;;;7.38;4.20;;;;;;;;;;4915832;28;20466;-76
2021/05/18 13:27:59;;;;;;;3.83;2.78;;;;;;;;;;4917495;28;20063;-77
2021/05/18 13:30:27;;;;;;;5.30;3.13;;;;;;;;;;4936644;28;20114;-76
2021/05/18 13:32:53;;;;;;;6.03;3.33;;;;;;;;;;4925614;28;20063;-77
2021/05/18 13:35:21;;;;;;;5.03;3.17;;;;;;;;;;4927480;28;20119;-77
2021/05/18 13:37:48;;;;;;;5.28;3.10;;;;;;;;;;4928368;28;20564;-76
2021/05/18 13:40:15;;;;;;;3.97;2.40;;;;;;;;;;4917488;28;20060;-76
2021/05/18 13:42:42;;;;;;;5.72;3.10;;;;;;;;;;4922575;28;20071;-77
2021/05/18 13:45:09;;;;;;;4.93;2.45;;;;;;;;;;4924292;28;20063;-78
2021/05/18 13:47:36;;;;;;;3.85;2.17;;;;;;;;;;4925967;28;20131;-77
2021/05/18 13:50:03;;;;;;;3.67;2.10;;;;;;;;;;4931163;28;20519;-78
2021/05/18 13:52:29;;;;;;;3.28;2.25;;;;;;;;;;4924232;29;20218;-77
2021/05/18 13:54:58;;;;;;;4.95;2.42;;;;;;;;;;4920092;28;20047;-78
2021/05/18 13:57:25;;;;;;;4.55;2.67;;;;;;;;;;4929031;28;20066;-77
2021/05/18 13:59:52;;;;;;;3.90;2.42;;;;;;;;;;4920819;28;20099;-77
2021/05/18 14:02:18;;;;;;;3.50;2.40;;;;;;;;;;4936642;28;20208;-79
2021/05/18 14:04:45;;;;;;;4.13;2.20;;;;;;;;;;4919573;28;20527;-80
2021/05/18 14:09:48;;;;;;;7.10;2.60;;;;;;;;;;4927708;28;20135;-78
2021/05/18 14:12:18;;;;;;;3.83;2.38;;;;;;;;;;4938358;28;20596;-78
2021/05/18 14:14:44;;;;;;;4.65;2.10;;;;;;;;;;4924162;28;20441;-78
2021/05/18 14:17:11;;;;;;;5.20;2.17;;;;;;;;;;4939282;28;20075;-77
2021/05/18 14:19:37;;;;;;;6.30;2.50;;;;;;;;;;4888947;28;20577;-77
2021/05/18 14:22:03;;;;;;;7.95;2.42;;;;;;;;;;4912356;28;20059;-78
2021/05/18 14:24:41;;;;;;;4.43;2.40;;;;;;;;;;4917349;28;20071;-78
2021/05/18 14:27:10;;;;;;;4.65;2.20;;;;;;;;;;4937217;28;20063;-78
2021/05/18 14:29:37;;;;;;;6.35;2.58;;;;;;;;;;4921291;28;20060;-77
2021/05/18 14:32:03;;;;;;;3.83;2.22;;;;;;;;;;4933515;28;20063;-78
2021/05/18 14:34:32;;;;;;;3.95;2.42;;;;;;;;;;4932437;28;20194;-79
2021/05/18 14:36:59;;;;;;;5.82;2.25;;;;;;;;;;4921149;28;20068;-79
2021/05/18 14:39:36;;;;;;;5.88;2.17;;;;;;;;;;4916731;28;20044;-78
2021/05/18 14:44:48;;;;;;;6.35;2.70;;;;;;;;;;4920603;28;20051;-79
2021/05/18 14:47:21;;;;;;;5.05;2.42;;;;;;;;;;4936687;28;20039;-79
2021/05/18 14:55:20;;;;;;;4.13;2.15;;;;;;;;;;4929281;28;20060;-79
2021/05/18 14:57:47;;;;;;;4.35;2.13;;;;;;;;;;4920953;28;20044;-78
2021/05/18 15:00:13;;;;;;;5.60;2.42;;;;;;;;;;4936501;28;20059;-80
2021/05/18 15:02:40;;;;;;;4.93;2.28;;;;;;;;;;4925562;28;20491;-79
2021/05/18 15:05:07;;;;;;;4.00;2.15;;;;;;;;;;4923817;28;20201;-79
2021/05/18 15:07:33;;;;;;;5.20;2.25;;;;;;;;;;4924884;28;20114;-79
2021/05/18 15:10:00;;;;;;;5.13;2.50;;;;;;;;;;4926950;28;20130;-78
2021/05/18 15:12:26;;;;;;;5.60;2.10;;;;;;;;;;4936464;28;20118;-78
2021/05/18 15:14:53;;;;;;;4.60;2.22;;;;;;;;;;4916497;28;20436;-78
2021/05/18 15:17:19;;;;;;;4.00;1.90;;;;;;;;;;4927455;28;20054;-79
2021/05/18 15:19:50;;;;;;;4.60;1.75;;;;;;;;;;4925154;28;20039;-78
2021/05/18 15:22:16;;;;;;;5.63;2.17;;;;;;;;;;4914969;28;20205;-78
2021/05/18 15:24:43;;;;;;;6.05;2.50;;;;;;;;;;4932773;28;20087;-77
2021/05/18 15:27:10;;;;;;;4.72;2.45;;;;;;;;;;4921516;28;20112;-78
2021/05/18 15:29:37;;;;;;;3.97;2.10;;;;;;;;;;4920628;28;20042;-79
2021/05/18 15:32:05;;;;;;;5.63;2.53;;;;;;;;;;4936495;28;20583;-77
2021/05/18 15:34:32;;;;;;;4.22;2.10;;;;;;;;;;4915615;28;20158;-78
2021/05/18 15:36:58;;;;;;;4.00;2.03;;;;;;;;;;4940370;28;20068;-79
2021/05/18 15:39:25;;;;;;;4.88;2.30;;;;;;;;;;4926899;28;20071;-78
2021/05/18 15:41:52;;;;;;;4.53;1.98;;;;;;;;;;4927945;28;20069;-79
2021/05/18 15:44:18;;;;;;;5.30;2.47;;;;;;;;;;4933184;28;20040;-76
2021/05/18 15:46:45;;;;;;;3.15;2.10;;;;;;;;;;4936611;28;20063;-76
2021/05/18 15:49:11;;;;;;;6.68;2.25;;;;;;;;;;4934115;28;20051;-75
2021/05/18 15:51:38;;;;;;;7.80;2.20;;;;;;;;;;4925699;28;20681;-75
2021/05/18 15:54:05;;;;;;;3.20;2.17;;;;;;;;;;4935307;28;20118;-75
2021/05/18 15:56:33;;;;;;;5.05;1.83;;;;;;;;;;4934974;28;20063;-74
2021/05/18 15:58:59;;;;;;;2.50;1.77;;;;;;;;;;4921538;28;20173;-76
2021/05/18 16:01:26;;;;;;;3.47;2.15;;;;;;;;;;4924566;28;20055;-89
2021/05/18 16:03:52;;;;;;;5.15;2.00;;;;;;;;;;4925664;28;20841;-85
2021/05/18 16:06:21;;;;;;;3.80;2.00;;;;;;;;;;4939912;28;20075;-85
2021/05/18 16:11:14;;;;;;;4.55;2.10;;;;;;;;;;4937480;28;20078;-90
2021/05/18 16:13:42;;;;;;;4.72;3.45;;;;;;;;;;4940022;28;20058;-76
2021/05/18 16:16:10;;;;;;;14.43;3.80;;;;;;;;;;4938080;28;20521;-74
2021/05/18 16:18:38;;;;;;;6.85;3.47;;;;;;;;;;4923266;28;20064;-73
2021/05/18 16:21:18;;;;;;;7.05;3.65;;;;;;;;;;4939371;28;20068;-75
2021/05/18 16:23:49;;;;;;;5.72;3.58;;;;;;;;;;4926327;28;20066;-76
2021/05/18 16:26:20;;;;;;;6.40;3.47;;;;;;;;;;4922695;28;20068;-75
2021/05/18 16:28:46;;;;;;;4.90;3.20;;;;;;;;;;4928329;28;20123;-80
2021/05/18 16:31:18;;;;;;;6.18;4.28;;;;;;;;;;4901784;29;20027;-86
2021/05/18 16:33:51;;;;;;;5.22;3.75;;;;;;;;;;4923724;28;20094;-86
2021/05/18 16:36:18;;;;;;;7.35;4.50;;;;;;;;;;4920467;28;20102;-77
2021/05/18 16:38:45;;;;;;;5.32;3.72;;;;;;;;;;4932986;28;20529;-78
2021/05/18 16:41:11;;;;;;;6.63;3.70;;;;;;;;;;4925887;28;20162;-77
2021/05/18 16:43:38;;;;;;;7.65;3.70;;;;;;;;;;4933924;28;20575;-77
2021/05/18 16:46:08;;;;;;;6.82;3.30;;;;;;;;;;4927827;28;20039;-80
2021/05/18 16:48:58;;;;;;;6.82;3.50;;;;;;;;;;4915759;28;20027;-79
2021/05/18 16:51:24;;;;;;;4.95;3.50;;;;;;;;;;4923803;28;20381;-78
2021/05/18 16:53:54;;;;;;;7.65;3.90;;;;;;;;;;4922454;28;20110;-79
2021/05/18 16:56:21;;;;;;;5.65;3.15;;;;;;;;;;4903084;29;20092;-77
2021/05/18 16:58:51;;;;;;;5.75;3.40;;;;;;;;;;4928613;28;20110;-77
2021/05/18 17:01:24;;;;;;;5.60;3.67;;;;;;;;;;4916668;28;20134;-80
2021/05/18 17:03:55;;;;;;;7.10;3.90;;;;;;;;;;4915882;28;20134;-80
2021/05/18 17:06:27;;;;;;;5.60;3.10;;;;;;;;;;4925257;28;20039;-80
2021/05/18 17:09:05;;;;;;;4.80;3.38;;;;;;;;;;4917590;28;20036;-77
2021/05/18 17:11:40;;;;;;;10.63;3.72;;;;;;;;;;4922010;28;20065;-78
2021/05/18 17:14:07;;;;;;;4.60;3.45;;;;;;;;;;4914184;28;20499;-87
2021/05/18 17:16:38;;;;;;;6.68;3.60;;;;;;;;;;4909101;28;20457;-90
2021/05/18 17:19:07;;;;;;;6.07;3.50;;;;;;;;;;4890000;28;20111;-87
2021/05/18 17:22:00;;;;;;;;;;;;;;;;;;4923248;28;20401;-87
2021/05/18 17:24:33;;;;;;;5.38;3.58;;;;;;;;;;4898732;28;19910;-85
2021/05/18 17:27:02;;;;;;;6.38;4.00;;;;;;;;;;4893224;29;20131;-88
2021/05/18 17:29:37;;;;;;;5.57;3.40;;;;;;;;;;4904362;29;20091;-86
2021/05/18 17:32:10;;;;;;;7.32;4.07;;;;;;;;;;4908143;28;20042;-87
2021/05/18 17:34:40;;;;;;;7.75;4.88;;;;;;;;;;4916199;28;20367;-85
2021/05/18 17:37:10;;;;;;;7.97;4.40;;;;;;;;;;4888395;28;20591;-85
2021/05/18 17:39:39;;;;;;;4.90;3.63;;;;;;;;;;4921710;28;20137;-84
2021/05/18 17:42:06;;;;;;;7.35;4.20;;;;;;;;;;4932352;28;20122;-84
2021/05/18 17:44:35;;;;;;;5.47;3.63;;;;;;;;;;4931953;28;20057;-84
2021/05/18 17:47:01;;;;;;;6.60;3.72;;;;;;;;;;4935059;28;20031;-84
2021/05/18 17:49:28;;;;;;;6.97;3.95;;;;;;;;;;4931553;28;20734;-81
2021/05/18 17:51:54;;;;;;;6.38;3.75;;;;;;;;;;4934786;28;20067;-82
2021/05/18 17:54:23;;;;;;;6.25;3.92;;;;;;;;;;4915340;28;20035;-83
2021/05/18 17:56:50;;;;;;;5.80;4.20;;;;;;;;;;4912371;28;20136;-83
2021/05/18 17:59:16;;;;;;;4.43;3.22;;;;;;;;;;4930227;28;20752;-83
2021/05/18 18:01:43;;;;;;;5.63;3.00;;;;;;;;;;4900884;29;20048;-83
2021/05/18 18:04:09;;;;;;;3.47;2.20;;;;;;;;;;4906195;28;20128;-84
2021/05/18 18:06:36;;;;;;;3.85;2.10;;;;;;;;;;4936222;28;20060;-84
2021/05/18 18:09:03;;;;;;;4.25;2.05;;;;;;;;;;4901247;28;20575;-83
2021/05/18 18:11:29;;;;;;;2.53;1.60;;;;;;;;;;4916879;28;20040;-84
2021/05/18 18:13:56;;;;;;;2.90;1.60;;;;;;;;;;4901398;28;20036;-84
2021/05/18 18:16:23;;;;;;;4.30;1.98;;;;;;;;;;4915544;28;20661;-84
2021/05/18 18:18:50;;;;;;;2.97;1.83;;;;;;;;;;4935649;28;20047;-85
2021/05/18 18:21:17;;;;;;;3.30;2.13;;;;;;;;;;4922368;28;20119;-85
2021/05/18 18:23:43;;;;;;;3.17;1.90;;;;;;;;;;4922506;28;20043;-85
2021/05/18 18:26:12;;;;;;;3.85;1.70;;;;;;;;;;4917527;28;20094;-85
2021/05/18 18:28:38;;;;;;;2.83;1.63;;;;;;;;;;4926695;28;20063;-86
2021/05/18 18:31:06;;;;;;;2.90;1.70;;;;;;;;;;4912362;28;20036;-84
2021/05/18 18:33:33;;;;;;;3.38;1.70;;;;;;;;;;4919047;28;20400;-86
2021/05/18 18:35:59;;;;;;;4.90;1.85;;;;;;;;;;4905188;28;20036;-86
2021/05/18 18:38:26;;;;;;;3.45;1.90;;;;;;;;;;4926432;28;20042;-85
2021/05/18 18:40:53;;;;;;;2.55;1.73;;;;;;;;;;4916384;28;20044;-87
2021/05/18 18:43:19;;;;;;;2.85;1.75;;;;;;;;;;4920543;28;20513;-86
2021/05/18 18:45:46;;;;;;;3.20;1.70;;;;;;;;;;4909920;28;20107;-86
2021/05/18 18:48:15;;;;;;;2.97;1.80;;;;;;;;;;4917596;28;20060;-86
2021/05/18 18:50:47;;;;;;;3.83;1.73;;;;;;;;;;4920653;28;20051;-85
2021/05/18 18:53:18;;;;;;;;;;;;;;;;;;4925136;28;20402;-85
2021/05/18 18:55:45;;;;;;;2.88;1.70;;;;;;;;;;4901954;29;19967;-85
2021/05/18 18:58:12;;;;;;;2.88;1.88;;;;;;;;;;4910597;28;20091;-85
2021/05/18 19:00:39;;;;;;;3.35;1.90;;;;;;;;;;4922769;28;20068;-86
2021/05/18 19:03:15;;;;;;;2.92;1.70;;;;;;;;;;4909398;28;20110;-87
2021/05/18 19:12:40;;;;;;;3.15;1.90;;;;;;;;;;4924519;28;20044;-84
2021/05/18 19:14:44;;;;;;;4.03;2.00;;;;;;;;;;4925828;28;20111;-78
2021/05/18 19:17:14;;;;;;;2.67;1.80;;;;;;;;;;4907259;29;20044;-77
2021/05/18 19:19:41;;;;;;;5.38;1.90;;;;;;;;;;4919339;28;20039;-82
2021/05/18 19:22:07;;;;;;;2.38;1.70;;;;;;;;;;4918641;28;20064;-87
2021/05/18 19:24:34;;;;;;;3.92;1.80;;;;;;;;;;4930896;28;20084;-82
2021/05/18 19:27:00;;;;;;;7.43;1.90;;;;;;;;;;4915395;28;20566;-84
2021/05/18 19:29:27;;;;;;;6.40;1.92;;;;;;;;;;4914744;29;20031;-83
2021/05/18 19:31:54;;;;;;;3.40;1.90;;;;;;;;;;4934739;28;20128;-83
2021/05/18 19:34:36;;;;;;;2.65;1.73;;;;;;;;;;4924269;28;20120;-79
2021/05/18 19:37:09;;;;;;;3.05;1.88;;;;;;;;;;4912830;28;20508;-81
2021/05/18 19:42:42;;;;;;;4.82;2.10;;;;;;;;;;4938219;28;20511;-84
2021/05/18 19:48:39;;;;;;;4.65;2.03;;;;;;;;;;4917692;28;20537;-80
2021/05/18 19:50:57;;;;;;;4.55;1.67;;;;;;;;;;4925535;28;20066;-80
2021/05/18 19:53:32;;;;;;;4.18;1.83;;;;;;;;;;4921382;29;20036;-82
2021/05/18 19:56:03;;;;;;;4.03;1.90;;;;;;;;;;4927622;28;20504;-80
2021/05/18 20:17:42;;;;;;;3.72;1.90;;;;;;;;;;4915866;28;20113;-81
2021/05/18 20:20:10;;;;;;;2.65;1.60;;;;;;;;;;4921177;28;20491;-81
2021/05/18 20:22:37;;;;;;;3.33;1.70;;;;;;;;;;4908099;29;20491;-80
2021/05/18 20:25:05;;;;;;;3.58;1.80;;;;;;;;;;4915740;28;20586;-81
2021/05/18 20:27:49;;;;;;;3.35;1.80;;;;;;;;;;4912192;28;20051;-80
2021/05/18 20:30:22;;;;;;;4.30;2.00;;;;;;;;;;4921054;28;20087;-82
2021/05/18 20:32:50;;;;;;;2.95;2.00;;;;;;;;;;4914535;28;20146;-81